sensor_id;sensor_type;location;lat;lon;timestamp;temperature;humidity
52187;DHT22;38161;53.020;6.598;2023-06-14T00:00:58;16.10;87.00
52187;DHT22;38161;53.020;6.598;2023-06-14T00:03:24;16.00;86.50
52187;DHT22;38161;53.020;6.598;2023-06-14T00:05:51;16.00;86.70
52187;DHT22;38161;53.020;6.598;2023-06-14T00:08:17;16.00;86.80
52187;DHT22;38161;53.020;6.598;2023-06-14T00:10:44;15.90;86.80
52187;DHT22;38161;53.020;6.598;2023-06-14T00:13:10;15.90;86.90
52187;DHT22;38161;53.020;6.598;2023-06-14T00:15:36;15.90;87.50
52187;DHT22;38161;53.020;6.598;2023-06-14T00:18:03;15.80;87.00
52187;DHT22;38161;53.020;6.598;2023-06-14T00:20:32;15.80;87.20
52187;DHT22;38161;53.020;6.598;2023-06-14T00:23:01;15.80;87.30
52187;DHT22;38161;53.020;6.598;2023-06-14T00:25:27;15.80;87.30
52187;DHT22;38161;53.020;6.598;2023-06-14T00:27:53;15.80;87.40
52187;DHT22;38161;53.020;6.598;2023-06-14T00:30:19;15.70;88.00
52187;DHT22;38161;53.020;6.598;2023-06-14T00:32:46;15.70;87.70
52187;DHT22;38161;53.020;6.598;2023-06-14T00:35:12;15.70;88.00
52187;DHT22;38161;53.020;6.598;2023-06-14T00:37:39;15.60;88.10
52187;DHT22;38161;53.020;6.598;2023-06-14T00:40:05;15.60;88.20
52187;DHT22;38161;53.020;6.598;2023-06-14T00:42:32;15.60;88.40
52187;DHT22;38161;53.020;6.598;2023-06-14T00:44:59;15.50;88.40
52187;DHT22;38161;53.020;6.598;2023-06-14T00:47:25;15.50;88.70
52187;DHT22;38161;53.020;6.598;2023-06-14T00:49:51;15.50;88.90
52187;DHT22;38161;53.020;6.598;2023-06-14T00:52:17;15.40;88.90
52187;DHT22;38161;53.020;6.598;2023-06-14T00:54:43;15.40;89.40
52187;DHT22;38161;53.020;6.598;2023-06-14T00:57:10;15.40;89.00
52187;DHT22;38161;53.020;6.598;2023-06-14T00:59:44;15.40;89.20
52187;DHT22;38161;53.020;6.598;2023-06-14T01:02:11;15.40;89.80
52187;DHT22;38161;53.020;6.598;2023-06-14T01:04:38;15.40;89.70
52187;DHT22;38161;53.020;6.598;2023-06-14T01:15:12;15.30;90.20
52187;DHT22;38161;53.020;6.598;2023-06-14T01:17:39;15.20;90.20
52187;DHT22;38161;53.020;6.598;2023-06-14T01:20:11;15.20;90.30
52187;DHT22;38161;53.020;6.598;2023-06-14T01:22:51;15.10;90.30
52187;DHT22;38161;53.020;6.598;2023-06-14T01:25:19;15.20;90.70
52187;DHT22;38161;53.020;6.598;2023-06-14T01:28:06;15.10;90.50
52187;DHT22;38161;53.020;6.598;2023-06-14T01:30:41;15.10;90.90
52187;DHT22;38161;53.020;6.598;2023-06-14T01:33:17;15.00;90.70
52187;DHT22;38161;53.020;6.598;2023-06-14T01:35:48;15.00;90.90
52187;DHT22;38161;53.020;6.598;2023-06-14T01:38:15;14.90;90.90
52187;DHT22;38161;53.020;6.598;2023-06-14T01:40:44;14.90;91.10
52187;DHT22;38161;53.020;6.598;2023-06-14T01:43:11;14.90;91.10
52187;DHT22;38161;53.020;6.598;2023-06-14T01:45:40;14.90;91.30
52187;DHT22;38161;53.020;6.598;2023-06-14T01:48:19;14.90;91.30
52187;DHT22;38161;53.020;6.598;2023-06-14T01:50:45;14.90;91.70
52187;DHT22;38161;53.020;6.598;2023-06-14T01:53:11;14.80;91.60
52187;DHT22;38161;53.020;6.598;2023-06-14T01:55:37;14.70;91.70
52187;DHT22;38161;53.020;6.598;2023-06-14T01:58:03;14.80;91.70
52187;DHT22;38161;53.020;6.598;2023-06-14T02:00:30;14.80;91.90
52187;DHT22;38161;53.020;6.598;2023-06-14T02:02:56;14.70;92.00
52187;DHT22;38161;53.020;6.598;2023-06-14T02:05:22;14.70;92.00
52187;DHT22;38161;53.020;6.598;2023-06-14T02:07:47;14.70;92.00
52187;DHT22;38161;53.020;6.598;2023-06-14T02:10:13;14.60;92.10
52187;DHT22;38161;53.020;6.598;2023-06-14T02:12:41;14.60;92.20
52187;DHT22;38161;53.020;6.598;2023-06-14T02:15:07;14.60;92.30
52187;DHT22;38161;53.020;6.598;2023-06-14T02:17:33;14.50;92.50
52187;DHT22;38161;53.020;6.598;2023-06-14T02:19:59;14.50;92.50
52187;DHT22;38161;53.020;6.598;2023-06-14T02:22:26;14.50;93.00
52187;DHT22;38161;53.020;6.598;2023-06-14T02:24:52;14.50;92.50
52187;DHT22;38161;53.020;6.598;2023-06-14T02:27:18;14.40;92.70
52187;DHT22;38161;53.020;6.598;2023-06-14T02:29:47;14.40;92.90
52187;DHT22;38161;53.020;6.598;2023-06-14T02:32:15;14.40;92.90
52187;DHT22;38161;53.020;6.598;2023-06-14T02:34:41;14.30;93.00
52187;DHT22;38161;53.020;6.598;2023-06-14T02:37:07;14.30;93.20
52187;DHT22;38161;53.020;6.598;2023-06-14T02:39:33;14.20;93.40
52187;DHT22;38161;53.020;6.598;2023-06-14T02:41:59;14.20;93.50
52187;DHT22;38161;53.020;6.598;2023-06-14T02:44:26;14.10;93.70
52187;DHT22;38161;53.020;6.598;2023-06-14T02:46:55;14.10;93.70
52187;DHT22;38161;53.020;6.598;2023-06-14T02:49:24;14.10;93.90
52187;DHT22;38161;53.020;6.598;2023-06-14T02:51:49;14.00;93.90
52187;DHT22;38161;53.020;6.598;2023-06-14T02:54:15;14.00;94.00
52187;DHT22;38161;53.020;6.598;2023-06-14T02:56:41;14.00;94.10
52187;DHT22;38161;53.020;6.598;2023-06-14T02:59:07;14.00;94.20
52187;DHT22;38161;53.020;6.598;2023-06-14T03:01:34;14.00;94.30
52187;DHT22;38161;53.020;6.598;2023-06-14T03:04:04;13.90;94.40
52187;DHT22;38161;53.020;6.598;2023-06-14T03:06:30;13.90;94.50
52187;DHT22;38161;53.020;6.598;2023-06-14T03:08:57;13.90;94.90
52187;DHT22;38161;53.020;6.598;2023-06-14T03:11:28;13.90;94.80
52187;DHT22;38161;53.020;6.598;2023-06-14T03:13:54;13.90;95.00
52187;DHT22;38161;53.020;6.598;2023-06-14T03:16:22;13.80;95.10
52187;DHT22;38161;53.020;6.598;2023-06-14T03:18:50;13.90;95.20
52187;DHT22;38161;53.020;6.598;2023-06-14T03:21:16;13.80;95.40
52187;DHT22;38161;53.020;6.598;2023-06-14T03:23:43;13.80;95.50
52187;DHT22;38161;53.020;6.598;2023-06-14T03:26:09;13.80;95.70
52187;DHT22;38161;53.020;6.598;2023-06-14T03:28:38;13.70;95.70
52187;DHT22;38161;53.020;6.598;2023-06-14T03:31:04;13.80;95.90
52187;DHT22;38161;53.020;6.598;2023-06-14T03:33:30;13.70;96.00
52187;DHT22;38161;53.020;6.598;2023-06-14T03:35:56;13.70;96.20
52187;DHT22;38161;53.020;6.598;2023-06-14T03:38:22;13.60;96.50
52187;DHT22;38161;53.020;6.598;2023-06-14T03:40:48;13.60;96.60
52187;DHT22;38161;53.020;6.598;2023-06-14T03:43:14;13.60;96.80
52187;DHT22;38161;53.020;6.598;2023-06-14T03:45:39;13.60;96.90
52187;DHT22;38161;53.020;6.598;2023-06-14T03:48:05;13.60;97.00
52187;DHT22;38161;53.020;6.598;2023-06-14T03:50:33;13.70;97.10
52187;DHT22;38161;53.020;6.598;2023-06-14T03:52:59;13.70;97.20
52187;DHT22;38161;53.020;6.598;2023-06-14T03:55:26;13.70;97.40
52187;DHT22;38161;53.020;6.598;2023-06-14T03:57:53;13.70;97.40
52187;DHT22;38161;53.020;6.598;2023-06-14T04:00:18;13.70;97.60
52187;DHT22;38161;53.020;6.598;2023-06-14T04:02:45;13.70;97.70
52187;DHT22;38161;53.020;6.598;2023-06-14T04:05:11;13.70;98.50
52187;DHT22;38161;53.020;6.598;2023-06-14T04:07:37;13.60;97.70
52187;DHT22;38161;53.020;6.598;2023-06-14T04:10:11;13.70;97.90
52187;DHT22;38161;53.020;6.598;2023-06-14T04:12:37;13.70;98.10
52187;DHT22;38161;53.020;6.598;2023-06-14T04:15:03;13.70;98.30
52187;DHT22;38161;53.020;6.598;2023-06-14T04:17:32;13.70;98.40
52187;DHT22;38161;53.020;6.598;2023-06-14T04:19:59;13.70;98.50
52187;DHT22;38161;53.020;6.598;2023-06-14T04:22:26;13.80;98.80
52187;DHT22;38161;53.020;6.598;2023-06-14T04:24:56;13.80;98.80
52187;DHT22;38161;53.020;6.598;2023-06-14T04:27:23;13.80;99.10
52187;DHT22;38161;53.020;6.598;2023-06-14T04:29:52;13.80;99.10
52187;DHT22;38161;53.020;6.598;2023-06-14T04:32:28;13.80;99.20
52187;DHT22;38161;53.020;6.598;2023-06-14T04:35:08;13.80;99.40
52187;DHT22;38161;53.020;6.598;2023-06-14T04:37:34;13.90;99.50
52187;DHT22;38161;53.020;6.598;2023-06-14T04:40:00;13.90;99.60
52187;DHT22;38161;53.020;6.598;2023-06-14T04:42:26;13.90;99.60
52187;DHT22;38161;53.020;6.598;2023-06-14T04:44:55;14.00;99.70
52187;DHT22;38161;53.020;6.598;2023-06-14T04:47:22;14.00;99.80
52187;DHT22;38161;53.020;6.598;2023-06-14T04:49:50;14.00;99.90
52187;DHT22;38161;53.020;6.598;2023-06-14T04:52:19;14.00;99.90
52187;DHT22;38161;53.020;6.598;2023-06-14T04:54:47;14.10;99.90
52187;DHT22;38161;53.020;6.598;2023-06-14T04:57:12;14.20;99.90
52187;DHT22;38161;53.020;6.598;2023-06-14T04:59:40;14.20;99.90
52187;DHT22;38161;53.020;6.598;2023-06-14T05:02:06;14.30;99.90
52187;DHT22;38161;53.020;6.598;2023-06-14T05:04:34;14.30;99.90
52187;DHT22;38161;53.020;6.598;2023-06-14T05:07:00;14.40;99.90
52187;DHT22;38161;53.020;6.598;2023-06-14T05:09:29;14.40;99.90
52187;DHT22;38161;53.020;6.598;2023-06-14T05:11:54;14.50;99.90
52187;DHT22;38161;53.020;6.598;2023-06-14T05:14:21;14.50;99.90
52187;DHT22;38161;53.020;6.598;2023-06-14T05:16:47;14.60;99.90
52187;DHT22;38161;53.020;6.598;2023-06-14T05:19:14;14.70;99.90
52187;DHT22;38161;53.020;6.598;2023-06-14T05:21:40;14.70;99.90
52187;DHT22;38161;53.020;6.598;2023-06-14T05:24:06;14.80;99.90
52187;DHT22;38161;53.020;6.598;2023-06-14T05:26:32;14.80;99.90
52187;DHT22;38161;53.020;6.598;2023-06-14T05:28:59;14.90;99.90
52187;DHT22;38161;53.020;6.598;2023-06-14T05:31:27;15.00;99.90
52187;DHT22;38161;53.020;6.598;2023-06-14T05:33:53;15.10;99.90
52187;DHT22;38161;53.020;6.598;2023-06-14T05:36:20;15.10;99.90
52187;DHT22;38161;53.020;6.598;2023-06-14T05:38:49;15.20;99.90
52187;DHT22;38161;53.020;6.598;2023-06-14T05:41:16;15.30;99.90
52187;DHT22;38161;53.020;6.598;2023-06-14T05:43:42;15.40;99.90
52187;DHT22;38161;53.020;6.598;2023-06-14T05:46:08;15.40;99.90
52187;DHT22;38161;53.020;6.598;2023-06-14T05:48:33;15.50;99.90
52187;DHT22;38161;53.020;6.598;2023-06-14T05:51:00;15.60;99.90
52187;DHT22;38161;53.020;6.598;2023-06-14T05:53:26;15.70;99.90
52187;DHT22;38161;53.020;6.598;2023-06-14T05:55:51;15.80;99.90
52187;DHT22;38161;53.020;6.598;2023-06-14T05:58:19;15.90;99.90
52187;DHT22;38161;53.020;6.598;2023-06-14T06:00:45;16.00;99.90
52187;DHT22;38161;53.020;6.598;2023-06-14T06:03:12;16.00;99.90
52187;DHT22;38161;53.020;6.598;2023-06-14T06:05:39;16.10;99.90
52187;DHT22;38161;53.020;6.598;2023-06-14T06:08:05;16.20;99.90
52187;DHT22;38161;53.020;6.598;2023-06-14T06:10:31;16.30;99.90
52187;DHT22;38161;53.020;6.598;2023-06-14T06:12:57;16.40;99.90
52187;DHT22;38161;53.020;6.598;2023-06-14T06:15:23;16.50;99.90
52187;DHT22;38161;53.020;6.598;2023-06-14T06:17:49;16.60;99.90
52187;DHT22;38161;53.020;6.598;2023-06-14T06:20:16;16.70;99.90
52187;DHT22;38161;53.020;6.598;2023-06-14T06:22:42;16.80;99.70
52187;DHT22;38161;53.020;6.598;2023-06-14T06:25:09;17.00;99.90
52187;DHT22;38161;53.020;6.598;2023-06-14T06:27:36;17.10;99.30
52187;DHT22;38161;53.020;6.598;2023-06-14T06:30:03;17.20;99.40
52187;DHT22;38161;53.020;6.598;2023-06-14T06:32:29;17.30;99.40
52187;DHT22;38161;53.020;6.598;2023-06-14T06:34:55;17.40;99.60
52187;DHT22;38161;53.020;6.598;2023-06-14T06:37:21;17.50;98.90
52187;DHT22;38161;53.020;6.598;2023-06-14T06:39:47;17.60;98.50
52187;DHT22;38161;53.020;6.598;2023-06-14T06:42:13;17.70;98.50
52187;DHT22;38161;53.020;6.598;2023-06-14T06:44:39;17.80;98.50
52187;DHT22;38161;53.020;6.598;2023-06-14T06:47:05;17.90;98.40
52187;DHT22;38161;53.020;6.598;2023-06-14T06:49:31;18.00;98.20
52187;DHT22;38161;53.020;6.598;2023-06-14T06:52:04;18.10;97.90
52187;DHT22;38161;53.020;6.598;2023-06-14T06:54:31;18.20;97.80
52187;DHT22;38161;53.020;6.598;2023-06-14T06:56:58;18.30;97.60
52187;DHT22;38161;53.020;6.598;2023-06-14T06:59:24;18.40;97.90
52187;DHT22;38161;53.020;6.598;2023-06-14T07:01:53;18.40;98.00
52187;DHT22;38161;53.020;6.598;2023-06-14T07:04:19;18.50;98.10
52187;DHT22;38161;53.020;6.598;2023-06-14T07:06:46;18.50;97.70
52187;DHT22;38161;53.020;6.598;2023-06-14T07:09:12;18.60;97.90
52187;DHT22;38161;53.020;6.598;2023-06-14T07:11:40;18.70;97.70
52187;DHT22;38161;53.020;6.598;2023-06-14T07:14:06;18.70;97.40
52187;DHT22;38161;53.020;6.598;2023-06-14T07:16:32;18.80;97.30
52187;DHT22;38161;53.020;6.598;2023-06-14T07:18:58;18.90;97.30
52187;DHT22;38161;53.020;6.598;2023-06-14T07:21:24;19.00;96.90
52187;DHT22;38161;53.020;6.598;2023-06-14T07:23:54;19.10;96.60
52187;DHT22;38161;53.020;6.598;2023-06-14T07:26:21;19.20;96.30
52187;DHT22;38161;53.020;6.598;2023-06-14T07:28:47;19.30;96.10
52187;DHT22;38161;53.020;6.598;2023-06-14T07:31:15;19.40;95.80
52187;DHT22;38161;53.020;6.598;2023-06-14T07:33:42;19.50;95.70
52187;DHT22;38161;53.020;6.598;2023-06-14T07:36:08;19.60;95.60
52187;DHT22;38161;53.020;6.598;2023-06-14T07:38:34;19.70;95.70
52187;DHT22;38161;53.020;6.598;2023-06-14T07:41:00;19.80;95.70
52187;DHT22;38161;53.020;6.598;2023-06-14T07:43:26;19.90;95.50
52187;DHT22;38161;53.020;6.598;2023-06-14T07:45:52;20.00;95.10
52187;DHT22;38161;53.020;6.598;2023-06-14T07:48:18;20.10;95.00
52187;DHT22;38161;53.020;6.598;2023-06-14T07:50:44;20.20;94.70
52187;DHT22;38161;53.020;6.598;2023-06-14T07:53:10;20.20;94.70
52187;DHT22;38161;53.020;6.598;2023-06-14T07:55:36;20.40;94.80
52187;DHT22;38161;53.020;6.598;2023-06-14T07:58:06;20.40;94.60
52187;DHT22;38161;53.020;6.598;2023-06-14T08:00:32;20.50;94.10
52187;DHT22;38161;53.020;6.598;2023-06-14T08:02:58;20.50;93.70
52187;DHT22;38161;53.020;6.598;2023-06-14T08:05:25;20.60;93.80
52187;DHT22;38161;53.020;6.598;2023-06-14T08:07:54;20.60;93.70
52187;DHT22;38161;53.020;6.598;2023-06-14T08:10:21;20.70;93.90
52187;DHT22;38161;53.020;6.598;2023-06-14T08:12:47;20.80;93.90
52187;DHT22;38161;53.020;6.598;2023-06-14T08:15:16;20.90;93.50
52187;DHT22;38161;53.020;6.598;2023-06-14T08:17:43;21.00;93.30
52187;DHT22;38161;53.020;6.598;2023-06-14T08:20:09;21.10;93.30
52187;DHT22;38161;53.020;6.598;2023-06-14T08:22:36;21.20;93.00
52187;DHT22;38161;53.020;6.598;2023-06-14T08:25:03;21.30;92.90
52187;DHT22;38161;53.020;6.598;2023-06-14T08:27:30;21.30;93.00
52187;DHT22;38161;53.020;6.598;2023-06-14T08:29:56;21.40;92.80
52187;DHT22;38161;53.020;6.598;2023-06-14T08:32:22;21.50;92.30
52187;DHT22;38161;53.020;6.598;2023-06-14T08:34:48;21.50;92.30
52187;DHT22;38161;53.020;6.598;2023-06-14T08:37:14;21.60;92.10
52187;DHT22;38161;53.020;6.598;2023-06-14T08:39:40;21.70;92.30
52187;DHT22;38161;53.020;6.598;2023-06-14T08:42:07;21.80;92.30
52187;DHT22;38161;53.020;6.598;2023-06-14T08:44:34;21.90;92.00
52187;DHT22;38161;53.020;6.598;2023-06-14T08:47:00;22.00;91.70
52187;DHT22;38161;53.020;6.598;2023-06-14T08:49:26;22.00;91.40
52187;DHT22;38161;53.020;6.598;2023-06-14T08:51:57;22.10;91.20
52187;DHT22;38161;53.020;6.598;2023-06-14T08:54:29;22.10;91.00
52187;DHT22;38161;53.020;6.598;2023-06-14T08:57:02;22.20;90.80
52187;DHT22;38161;53.020;6.598;2023-06-14T08:59:30;22.20;90.80
52187;DHT22;38161;53.020;6.598;2023-06-14T09:01:59;22.20;90.70
52187;DHT22;38161;53.020;6.598;2023-06-14T09:04:25;22.30;90.40
52187;DHT22;38161;53.020;6.598;2023-06-14T09:06:55;22.40;90.60
52187;DHT22;38161;53.020;6.598;2023-06-14T09:09:22;22.40;90.90
52187;DHT22;38161;53.020;6.598;2023-06-14T09:11:52;22.60;90.70
52187;DHT22;38161;53.020;6.598;2023-06-14T09:14:21;22.60;90.20
52187;DHT22;38161;53.020;6.598;2023-06-14T09:16:47;22.70;90.20
52187;DHT22;38161;53.020;6.598;2023-06-14T09:19:23;22.80;90.00
52187;DHT22;38161;53.020;6.598;2023-06-14T09:21:50;22.80;89.50
52187;DHT22;38161;53.020;6.598;2023-06-14T09:24:18;22.80;89.30
52187;DHT22;38161;53.020;6.598;2023-06-14T09:26:47;22.80;88.90
52187;DHT22;38161;53.020;6.598;2023-06-14T09:29:13;22.90;88.20
52187;DHT22;38161;53.020;6.598;2023-06-14T09:31:39;22.90;88.10
52187;DHT22;38161;53.020;6.598;2023-06-14T09:34:05;22.90;88.50
52187;DHT22;38161;53.020;6.598;2023-06-14T09:36:32;23.00;88.70
52187;DHT22;38161;53.020;6.598;2023-06-14T09:39:00;23.10;88.30
52187;DHT22;38161;53.020;6.598;2023-06-14T09:41:37;23.20;88.10
52187;DHT22;38161;53.020;6.598;2023-06-14T09:44:08;23.20;87.50
52187;DHT22;38161;53.020;6.598;2023-06-14T09:46:35;23.30;87.10
52187;DHT22;38161;53.020;6.598;2023-06-14T09:49:02;23.30;87.10
52187;DHT22;38161;53.020;6.598;2023-06-14T09:51:29;23.40;87.40
52187;DHT22;38161;53.020;6.598;2023-06-14T09:53:59;23.40;87.90
52187;DHT22;38161;53.020;6.598;2023-06-14T09:56:37;23.40;88.00
52187;DHT22;38161;53.020;6.598;2023-06-14T09:59:06;23.70;86.40
52187;DHT22;38161;53.020;6.598;2023-06-14T10:01:39;23.70;86.80
52187;DHT22;38161;53.020;6.598;2023-06-14T10:04:07;23.80;87.00
52187;DHT22;38161;53.020;6.598;2023-06-14T10:06:36;23.90;87.30
52187;DHT22;38161;53.020;6.598;2023-06-14T10:09:04;24.00;86.70
52187;DHT22;38161;53.020;6.598;2023-06-14T10:11:33;24.10;87.10
52187;DHT22;38161;53.020;6.598;2023-06-14T10:14:02;24.20;86.40
52187;DHT22;38161;53.020;6.598;2023-06-14T10:16:34;24.20;85.90
52187;DHT22;38161;53.020;6.598;2023-06-14T10:19:22;24.20;85.60
52187;DHT22;38161;53.020;6.598;2023-06-14T10:22:11;24.30;85.40
52187;DHT22;38161;53.020;6.598;2023-06-14T10:24:43;24.40;84.90
52187;DHT22;38161;53.020;6.598;2023-06-14T10:27:10;24.40;84.90
52187;DHT22;38161;53.020;6.598;2023-06-14T10:32:23;24.60;84.40
52187;DHT22;38161;53.020;6.598;2023-06-14T10:35:06;24.50;84.20
52187;DHT22;38161;53.020;6.598;2023-06-14T10:37:33;24.60;83.40
52187;DHT22;38161;53.020;6.598;2023-06-14T10:39:58;24.70;84.00
52187;DHT22;38161;53.020;6.598;2023-06-14T10:42:53;24.70;82.90
52187;DHT22;38161;53.020;6.598;2023-06-14T10:45:19;24.70;84.20
52187;DHT22;38161;53.020;6.598;2023-06-14T10:47:51;24.80;84.10
52187;DHT22;38161;53.020;6.598;2023-06-14T10:50:27;24.90;83.60
52187;DHT22;38161;53.020;6.598;2023-06-14T10:52:59;24.90;82.10
52187;DHT22;38161;53.020;6.598;2023-06-14T10:55:27;24.90;82.60
52187;DHT22;38161;53.020;6.598;2023-06-14T10:58:00;24.90;81.60
52187;DHT22;38161;53.020;6.598;2023-06-14T11:00:28;24.90;82.30
52187;DHT22;38161;53.020;6.598;2023-06-14T11:03:23;24.90;81.70
52187;DHT22;38161;53.020;6.598;2023-06-14T11:05:58;25.00;79.20
52187;DHT22;38161;53.020;6.598;2023-06-14T11:08:39;24.90;80.20
52187;DHT22;38161;53.020;6.598;2023-06-14T11:11:09;24.90;80.60
52187;DHT22;38161;53.020;6.598;2023-06-14T11:13:44;25.00;80.30
52187;DHT22;38161;53.020;6.598;2023-06-14T11:16:15;24.90;78.70
52187;DHT22;38161;53.020;6.598;2023-06-14T11:18:42;24.90;79.70
52187;DHT22;38161;53.020;6.598;2023-06-14T11:21:08;24.90;80.00
52187;DHT22;38161;53.020;6.598;2023-06-14T11:23:40;25.00;80.20
52187;DHT22;38161;53.020;6.598;2023-06-14T11:26:06;25.00;79.50
52187;DHT22;38161;53.020;6.598;2023-06-14T11:28:38;25.00;79.90
52187;DHT22;38161;53.020;6.598;2023-06-14T11:31:07;24.80;78.60
52187;DHT22;38161;53.020;6.598;2023-06-14T11:33:34;24.80;79.90
52187;DHT22;38161;53.020;6.598;2023-06-14T11:36:05;24.90;80.10
52187;DHT22;38161;53.020;6.598;2023-06-14T11:38:36;24.90;80.00
52187;DHT22;38161;53.020;6.598;2023-06-14T11:41:02;24.90;80.00
52187;DHT22;38161;53.020;6.598;2023-06-14T11:43:28;25.00;80.30
52187;DHT22;38161;53.020;6.598;2023-06-14T11:45:57;25.10;80.90
52187;DHT22;38161;53.020;6.598;2023-06-14T11:48:23;25.20;81.60
52187;DHT22;38161;53.020;6.598;2023-06-14T11:50:50;25.30;81.30
52187;DHT22;38161;53.020;6.598;2023-06-14T11:53:17;25.40;80.50
52187;DHT22;38161;53.020;6.598;2023-06-14T11:55:43;25.40;80.10
52187;DHT22;38161;53.020;6.598;2023-06-14T11:58:11;25.50;80.30
52187;DHT22;38161;53.020;6.598;2023-06-14T12:00:37;25.50;79.10
52187;DHT22;38161;53.020;6.598;2023-06-14T12:03:03;25.40;78.80
52187;DHT22;38161;53.020;6.598;2023-06-14T12:05:29;25.40;79.60
52187;DHT22;38161;53.020;6.598;2023-06-14T12:07:59;25.40;79.10
52187;DHT22;38161;53.020;6.598;2023-06-14T12:10:26;25.40;78.20
52187;DHT22;38161;53.020;6.598;2023-06-14T12:12:57;25.40;78.20
52187;DHT22;38161;53.020;6.598;2023-06-14T12:15:23;25.40;78.90
52187;DHT22;38161;53.020;6.598;2023-06-14T12:17:49;25.50;79.60
52187;DHT22;38161;53.020;6.598;2023-06-14T12:20:16;25.60;79.80
52187;DHT22;38161;53.020;6.598;2023-06-14T12:23:03;25.70;79.30
52187;DHT22;38161;53.020;6.598;2023-06-14T12:25:34;25.70;78.40
52187;DHT22;38161;53.020;6.598;2023-06-14T12:28:08;25.70;78.60
52187;DHT22;38161;53.020;6.598;2023-06-14T12:30:35;25.80;78.10
52187;DHT22;38161;53.020;6.598;2023-06-14T12:33:02;25.80;78.40
52187;DHT22;38161;53.020;6.598;2023-06-14T12:35:28;25.80;78.70
52187;DHT22;38161;53.020;6.598;2023-06-14T12:37:54;25.80;78.30
52187;DHT22;38161;53.020;6.598;2023-06-14T12:40:20;25.80;78.00
52187;DHT22;38161;53.020;6.598;2023-06-14T12:42:46;25.80;77.10
52187;DHT22;38161;53.020;6.598;2023-06-14T12:45:15;25.80;78.50
52187;DHT22;38161;53.020;6.598;2023-06-14T12:47:41;25.80;78.60
52187;DHT22;38161;53.020;6.598;2023-06-14T12:50:08;25.90;78.90
52187;DHT22;38161;53.020;6.598;2023-06-14T12:52:33;25.90;78.00
52187;DHT22;38161;53.020;6.598;2023-06-14T12:55:03;25.90;77.90
52187;DHT22;38161;53.020;6.598;2023-06-14T12:57:29;26.00;77.10
52187;DHT22;38161;53.020;6.598;2023-06-14T12:59:55;25.90;77.40
52187;DHT22;38161;53.020;6.598;2023-06-14T13:02:20;26.00;77.60
52187;DHT22;38161;53.020;6.598;2023-06-14T13:04:49;26.00;77.20
52187;DHT22;38161;53.020;6.598;2023-06-14T13:07:14;26.00;76.40
52187;DHT22;38161;53.020;6.598;2023-06-14T13:09:41;25.90;75.50
52187;DHT22;38161;53.020;6.598;2023-06-14T13:12:08;25.90;77.00
52187;DHT22;38161;53.020;6.598;2023-06-14T13:14:34;25.90;76.50
52187;DHT22;38161;53.020;6.598;2023-06-14T13:16:59;25.90;76.90
52187;DHT22;38161;53.020;6.598;2023-06-14T13:19:25;26.00;76.80
52187;DHT22;38161;53.020;6.598;2023-06-14T13:21:51;26.10;77.10
52187;DHT22;38161;53.020;6.598;2023-06-14T13:24:18;26.10;75.60
52187;DHT22;38161;53.020;6.598;2023-06-14T13:26:43;26.00;76.70
52187;DHT22;38161;53.020;6.598;2023-06-14T13:29:10;25.90;76.20
52187;DHT22;38161;53.020;6.598;2023-06-14T13:31:36;25.90;77.40
52187;DHT22;38161;53.020;6.598;2023-06-14T13:34:01;25.90;76.80
52187;DHT22;38161;53.020;6.598;2023-06-14T13:36:27;26.00;78.20
52187;DHT22;38161;53.020;6.598;2023-06-14T13:38:53;26.00;77.70
52187;DHT22;38161;53.020;6.598;2023-06-14T13:41:20;26.20;77.00
52187;DHT22;38161;53.020;6.598;2023-06-14T13:43:46;26.10;76.70
52187;DHT22;38161;53.020;6.598;2023-06-14T13:46:12;25.90;76.10
52187;DHT22;38161;53.020;6.598;2023-06-14T13:48:38;25.80;76.80
52187;DHT22;38161;53.020;6.598;2023-06-14T13:51:03;25.70;76.80
52187;DHT22;38161;53.020;6.598;2023-06-14T13:53:30;25.80;77.40
52187;DHT22;38161;53.020;6.598;2023-06-14T13:55:56;25.90;76.20
52187;DHT22;38161;53.020;6.598;2023-06-14T13:58:22;25.90;76.90
52187;DHT22;38161;53.020;6.598;2023-06-14T14:00:49;25.90;76.60
52187;DHT22;38161;53.020;6.598;2023-06-14T14:03:15;25.90;76.90
52187;DHT22;38161;53.020;6.598;2023-06-14T14:05:41;25.80;75.90
52187;DHT22;38161;53.020;6.598;2023-06-14T14:08:07;25.60;76.70
52187;DHT22;38161;53.020;6.598;2023-06-14T14:10:32;25.40;76.20
52187;DHT22;38161;53.020;6.598;2023-06-14T14:12:58;25.40;77.20
52187;DHT22;38161;53.020;6.598;2023-06-14T14:15:25;25.40;77.40
52187;DHT22;38161;53.020;6.598;2023-06-14T14:17:51;25.50;78.00
52187;DHT22;38161;53.020;6.598;2023-06-14T14:20:17;25.60;77.80
52187;DHT22;38161;53.020;6.598;2023-06-14T14:22:43;25.80;77.10
52187;DHT22;38161;53.020;6.598;2023-06-14T14:25:09;25.90;76.80
52187;DHT22;38161;53.020;6.598;2023-06-14T14:27:36;25.90;77.00
52187;DHT22;38161;53.020;6.598;2023-06-14T14:30:03;26.00;76.80
52187;DHT22;38161;53.020;6.598;2023-06-14T14:32:29;26.10;76.70
52187;DHT22;38161;53.020;6.598;2023-06-14T14:34:55;26.00;76.20
52187;DHT22;38161;53.020;6.598;2023-06-14T14:37:21;25.90;75.40
52187;DHT22;38161;53.020;6.598;2023-06-14T14:39:46;25.70;76.00
52187;DHT22;38161;53.020;6.598;2023-06-14T14:42:12;25.60;75.10
52187;DHT22;38161;53.020;6.598;2023-06-14T14:44:39;25.50;76.30
52187;DHT22;38161;53.020;6.598;2023-06-14T14:47:05;25.50;75.80
52187;DHT22;38161;53.020;6.598;2023-06-14T14:49:31;25.40;75.40
52187;DHT22;38161;53.020;6.598;2023-06-14T14:51:57;25.30;74.90
52187;DHT22;38161;53.020;6.598;2023-06-14T14:54:23;25.10;75.10
52187;DHT22;38161;53.020;6.598;2023-06-14T14:56:50;25.00;75.10
52187;DHT22;38161;53.020;6.598;2023-06-14T14:59:16;25.00;76.20
52187;DHT22;38161;53.020;6.598;2023-06-14T15:01:42;25.00;76.70
52187;DHT22;38161;53.020;6.598;2023-06-14T15:04:08;25.10;76.20
52187;DHT22;38161;53.020;6.598;2023-06-14T15:06:34;25.20;77.00
52187;DHT22;38161;53.020;6.598;2023-06-14T15:09:01;25.20;75.90
52187;DHT22;38161;53.020;6.598;2023-06-14T15:11:27;25.10;76.00
52187;DHT22;38161;53.020;6.598;2023-06-14T15:13:53;25.10;75.60
52187;DHT22;38161;53.020;6.598;2023-06-14T15:16:19;25.10;75.90
52187;DHT22;38161;53.020;6.598;2023-06-14T15:18:45;25.10;75.30
52187;DHT22;38161;53.020;6.598;2023-06-14T15:21:11;25.10;76.30
52187;DHT22;38161;53.020;6.598;2023-06-14T15:23:37;25.20;76.00
52187;DHT22;38161;53.020;6.598;2023-06-14T15:26:03;25.20;76.50
52187;DHT22;38161;53.020;6.598;2023-06-14T15:28:29;25.30;76.70
52187;DHT22;38161;53.020;6.598;2023-06-14T15:30:55;25.40;75.80
52187;DHT22;38161;53.020;6.598;2023-06-14T15:33:21;25.40;75.80
52187;DHT22;38161;53.020;6.598;2023-06-14T15:35:47;25.40;75.50
52187;DHT22;38161;53.020;6.598;2023-06-14T15:38:13;25.30;75.10
52187;DHT22;38161;53.020;6.598;2023-06-14T15:40:39;25.20;73.80
52187;DHT22;38161;53.020;6.598;2023-06-14T15:43:05;24.90;74.80